Orbital elements of FENGYUN 1C DEB
| Launched | 9 May 1999 |
| Flight ended | – |
| Launch site | Taiyuan Space Center, PRC |
| Owner | People's Republic of China |
| NORAD ID | 31821 |
| Date fetched |
Epoch osculation |
Inc. [°] |
Ecc. | RA asc node [hr] |
Arg Peri. [°] |
Mean anom [°] |
Mean motion [rev/day] |
Abs. mag |
| Date fetched |
Epoch osculation |
Inc. [°] |
Ecc. | RA asc node [hr] |
Arg Peri. [°] |
Mean anom [°] |
Mean motion [rev/day] |
Abs. mag |
| 2026 May 08 17:57 | 2026 May 04 09:44:24 | 98.1554 | 0.02038 | 0.5856 | 300.1760 | 57.9385 | 14.47725 | – |
| 2026 May 07 17:58 | 2026 May 04 09:44:24 | 98.1554 | 0.02038 | 0.5856 | 300.1760 | 57.9385 | 14.47725 | – |
| 2026 May 06 17:57 | 2026 May 04 09:44:24 | 98.1554 | 0.02038 | 0.5856 | 300.1760 | 57.9385 | 14.47725 | – |
| 2026 May 05 17:57 | 2026 May 04 09:44:24 | 98.1554 | 0.02038 | 0.5856 | 300.1760 | 57.9385 | 14.47725 | – |
| 2026 May 04 17:57 | 2026 Apr 30 09:31:40 | 98.1589 | 0.02052 | 0.3276 | 312.4912 | 57.9385 | 14.47725 | – |
| 2026 May 03 17:57 | 2026 Apr 30 09:31:40 | 98.1589 | 0.02052 | 0.3276 | 312.4912 | 57.9385 | 14.47725 | – |
| 2026 May 02 17:57 | 2026 Apr 30 09:31:40 | 98.1589 | 0.02052 | 0.3276 | 312.4912 | 57.9385 | 14.47725 | – |
| 2026 May 01 17:56 | 2026 Apr 30 09:31:40 | 98.1589 | 0.02052 | 0.3276 | 312.4912 | 57.9385 | 14.47725 | – |
| 2026 Apr 30 17:56 | 2026 Apr 30 09:31:40 | 98.1589 | 0.02052 | 0.3276 | 312.4912 | 57.9385 | 14.47725 | – |
| 2026 Apr 29 17:57 | 2026 Apr 24 02:32:50 | 98.1565 | 0.02076 | 23.9229 | 331.6645 | 57.9385 | 14.47725 | – |
| 2026 Apr 28 17:56 | 2026 Apr 24 02:32:50 | 98.1565 | 0.02076 | 23.9229 | 331.6645 | 57.9385 | 14.47725 | – |
| 2026 Apr 27 17:58 | 2026 Apr 24 02:32:50 | 98.1565 | 0.02076 | 23.9229 | 331.6645 | 57.9385 | 14.47725 | – |
| 2026 Apr 26 17:58 | 2026 Apr 24 02:32:50 | 98.1565 | 0.02076 | 23.9229 | 331.6645 | 57.9385 | 14.47725 | – |
| 2026 Apr 25 17:58 | 2026 Apr 24 02:32:50 | 98.1565 | 0.02076 | 23.9229 | 331.6645 | 57.9385 | 14.47725 | – |
| 2026 Apr 24 17:59 | 2026 Apr 24 02:32:50 | 98.1565 | 0.02076 | 23.9229 | 331.6645 | 57.9385 | 14.47725 | – |
| 2026 Apr 23 17:57 | 2026 Apr 19 09:42:27 | 98.1564 | 0.02091 | 23.6206 | 345.8180 | 57.9385 | 14.47725 | – |
| 2026 Apr 22 17:57 | 2026 Apr 19 09:42:27 | 98.1564 | 0.02091 | 23.6206 | 345.8180 | 57.9385 | 14.47725 | – |
| 2026 Apr 21 17:57 | 2026 Apr 19 09:42:27 | 98.1564 | 0.02091 | 23.6206 | 345.8180 | 57.9385 | 14.47725 | – |
| 2026 Apr 20 17:57 | 2026 Apr 19 09:42:27 | 98.1564 | 0.02091 | 23.6206 | 345.8180 | 57.9385 | 14.47725 | – |
| 2026 Apr 19 17:58 | 2026 Apr 19 09:42:27 | 98.1564 | 0.02091 | 23.6206 | 345.8180 | 57.9385 | 14.47725 | – |
| 2026 Apr 18 17:56 | 2026 Apr 13 02:40:55 | 98.1574 | 0.02104 | 23.2161 | 4.7007 | 57.9385 | 14.47725 | – |
| 2026 Apr 16 17:57 | 2026 Apr 13 02:40:55 | 98.1574 | 0.02104 | 23.2161 | 4.7007 | 57.9385 | 14.47725 | – |
| 2026 Apr 14 17:57 | 2026 Apr 13 02:40:55 | 98.1574 | 0.02104 | 23.2161 | 4.7007 | 57.9385 | 14.47725 | – |
| 2026 Apr 13 17:57 | 2026 Apr 13 02:40:55 | 98.1574 | 0.02104 | 23.2161 | 4.7007 | 57.9385 | 14.47725 | – |
| 2026 Apr 12 17:57 | 2026 Apr 08 09:48:57 | 98.1556 | 0.02111 | 22.9138 | 18.7769 | 57.9385 | 14.47725 | – |
| 2026 Apr 11 17:57 | 2026 Apr 08 09:48:57 | 98.1556 | 0.02111 | 22.9138 | 18.7769 | 57.9385 | 14.47725 | – |